Pinewood, Texas
Current Conditions -  °F | °C
As of 1:35 AM on Thursday 18 Dec 2014 (Local Time) from KGGG Reporting Station
Overcast Overcast  
Wind Chill: 42°   Ceiling: 400
Heat Index: 44°   Visibility: 10mi
Dew Point: 42°   Wind: 5mph
Humidity: 93%   Direction: 20°NNE
Pressure: 30.15"   Gusts: NA
Location:  32.4573°N, 94.6541°W
Report Text: KGGG 180735Z AUTO 02004KT 10SM OVC004 07/06 A3015 RMK AO2 RAB11E34 P0000 T00670056
Loading
Personal Weather Stations






























Interactive Weather Map New forecast layout! Learn more

10-Day Weather Forecast

Advertisements
Track Severe Weather on mobile